Cromarty, United Kingdom
Current Conditions -  °F | °C
As of 7:20 PM on Friday 24 Oct 2014 (Local Time) from EGPE Reporting Station
Few Clouds Few Clouds  
Wind Chill: 42°   Ceiling: Unl
Heat Index: 48°   Visibility: 6mi
Dew Point: 43°   Wind: 15mph
Humidity: 82%   Direction: 210°SSW
Pressure: 29.59"   Gusts: NA
Location:  57.68°N, 4.03°W
Report Text: EGPE 241820Z 21013KT 9999 FEW015 09/06 Q1002
Loading
Personal Weather Stations






























Interactive Weather Map
Tropical Storm Tracking
New forecast layout! Learn more

10-Day Weather Forecast

Advertisements
Track Severe Weather on mobile